createdAt,value
2016-07-15T00:00:28.391Z,11.57
2016-07-15T00:01:28.963Z,11.56
2016-07-15T00:02:28.363Z,11.57
2016-07-15T00:03:28.289Z,11.56
2016-07-15T00:04:28.301Z,11.56
2016-07-15T00:05:28.304Z,11.52
2016-07-15T00:06:28.298Z,11.64
2016-07-15T00:07:28.317Z,11.56
2016-07-15T00:08:28.332Z,11.52
2016-07-15T00:09:28.307Z,11.5
2016-07-15T00:10:28.324Z,11.53
2016-07-15T00:11:28.304Z,11.52
2016-07-15T00:12:28.304Z,11.49
2016-07-15T00:13:28.332Z,11.5
2016-07-15T00:14:28.379Z,11.47
2016-07-15T00:15:28.334Z,11.44
2016-07-15T00:16:28.337Z,11.53
2016-07-15T00:17:28.327Z,11.49
2016-07-15T00:18:28.368Z,11.53
2016-07-15T00:19:28.363Z,11.41
2016-07-15T00:20:28.379Z,11.52
2016-07-15T00:21:28.341Z,11.49
2016-07-15T00:22:28.362Z,11.43
2016-07-15T00:23:28.380Z,11.56
2016-07-15T00:24:28.367Z,11.47
2016-07-15T00:25:28.394Z,11.39
2016-07-15T00:26:28.335Z,11.49
2016-07-15T00:27:28.368Z,11.36
2016-07-15T00:28:28.370Z,11.39
2016-07-15T00:29:28.362Z,11.53
2016-07-15T00:30:28.327Z,11.44
2016-07-15T00:31:28.427Z,11.44
2016-07-15T00:32:28.335Z,11.49
2016-07-15T00:33:28.319Z,11.44
2016-07-15T00:34:28.327Z,11.34
2016-07-15T00:35:28.401Z,11.44
2016-07-15T00:36:28.355Z,11.41
2016-07-15T00:37:28.335Z,11.41
2016-07-15T00:38:28.338Z,11.32
2016-07-15T00:39:29.027Z,11.44
2016-07-15T00:40:28.372Z,11.46
2016-07-15T00:41:28.314Z,11.49
2016-07-15T00:42:28.357Z,11.41
2016-07-15T00:43:28.335Z,11.5
2016-07-15T00:44:28.403Z,11.49
2016-07-15T00:45:28.367Z,11.47
2016-07-15T00:46:28.350Z,11.59
2016-07-15T00:47:28.352Z,11.52
2016-07-15T00:48:28.335Z,11.49
2016-07-15T00:49:28.444Z,11.47
2016-07-15T00:50:28.400Z,11.41
2016-07-15T00:51:28.368Z,11.54
2016-07-15T00:52:28.384Z,11.57
2016-07-15T00:53:28.369Z,11.56
2016-07-15T00:54:28.442Z,11.61
2016-07-15T00:55:28.375Z,11.54
2016-07-15T00:56:28.368Z,11.62
2016-07-15T00:57:28.341Z,11.62
2016-07-15T00:58:28.372Z,11.68
2016-07-15T00:59:28.355Z,11.68
2016-07-15T01:00:28.373Z,11.72
2016-07-15T01:01:28.366Z,11.71
2016-07-15T01:02:28.364Z,11.64
2016-07-15T01:03:28.366Z,11.7
2016-07-15T01:04:28.404Z,11.78
2016-07-15T01:05:28.406Z,11.7
2016-07-15T01:06:28.370Z,11.77
2016-07-15T01:07:28.397Z,11.78
2016-07-15T01:08:28.343Z,11.67
2016-07-15T01:09:28.358Z,11.78
2016-07-15T01:10:28.334Z,11.78
2016-07-15T01:11:28.358Z,11.87
2016-07-15T01:12:28.399Z,11.77
2016-07-15T01:13:28.373Z,11.8
2016-07-15T01:14:28.371Z,11.83
2016-07-15T01:15:28.426Z,11.86
2016-07-15T01:16:28.370Z,11.89
2016-07-15T01:17:28.362Z,11.83
2016-07-15T01:18:28.365Z,11.87
2016-07-15T01:19:28.377Z,11.97
2016-07-15T01:20:28.443Z,11.93
2016-07-15T01:21:28.375Z,11.94
2016-07-15T01:22:28.399Z,11.99
2016-07-15T01:23:28.401Z,12.04
2016-07-15T01:24:28.406Z,12.09
2016-07-15T01:25:28.421Z,12.08
2016-07-15T01:26:28.436Z,12.13
2016-07-15T01:27:28.368Z,12.26
2016-07-15T01:28:28.404Z,12.3
2016-07-15T01:29:28.378Z,12.09
2016-07-15T01:30:28.365Z,12.34
2016-07-15T01:31:28.398Z,12.27
2016-07-15T01:32:28.398Z,12.45
2016-07-15T01:33:28.473Z,12.44
2016-07-15T01:34:28.404Z,12.48
2016-07-15T01:35:28.430Z,12.59
2016-07-15T01:36:28.360Z,12.62
2016-07-15T01:37:28.387Z,12.6
2016-07-15T01:38:28.428Z,12.66
2016-07-15T01:39:28.428Z,12.63
2016-07-15T01:40:28.408Z,12.75
2016-07-15T01:41:28.409Z,12.84
2016-07-15T01:42:28.400Z,12.84
2016-07-15T01:43:28.390Z,12.71
2016-07-15T01:44:28.400Z,12.92
2016-07-15T01:45:28.398Z,12.92
2016-07-15T01:46:28.399Z,12.96
2016-07-15T01:47:28.412Z,13.02
2016-07-15T01:48:28.397Z,13.11
2016-07-15T01:49:28.396Z,13.17
2016-07-15T01:50:28.429Z,13.12
2016-07-15T01:51:28.398Z,13.18
2016-07-15T01:52:28.398Z,13.17
2016-07-15T01:53:28.403Z,13.2
2016-07-15T01:54:28.401Z,13.2
2016-07-15T01:55:28.436Z,13.2
2016-07-15T01:56:28.380Z,13.17
2016-07-15T01:57:28.399Z,13.25
2016-07-15T01:58:28.399Z,13.33
2016-07-15T01:59:28.463Z,13.4
2016-07-15T02:00:28.394Z,13.38
2016-07-15T02:01:28.383Z,13.33
2016-07-15T02:02:28.435Z,13.38
2016-07-15T02:03:28.429Z,13.36
2016-07-15T02:04:28.397Z,13.46
2016-07-15T02:05:28.467Z,13.52
2016-07-15T02:06:28.429Z,13.46
2016-07-15T02:07:28.399Z,13.47
2016-07-15T02:08:28.489Z,13.54
2016-07-15T02:09:28.461Z,13.46
2016-07-15T02:10:28.402Z,13.54
2016-07-15T02:11:28.435Z,13.52
2016-07-15T02:12:28.441Z,13.52
2016-07-15T02:13:28.429Z,13.54
2016-07-15T02:14:28.439Z,13.56
2016-07-15T02:15:28.431Z,13.54
2016-07-15T02:16:28.436Z,13.59
2016-07-15T02:17:27.857Z,13.61
2016-07-15T02:18:27.852Z,13.58
2016-07-15T02:19:27.859Z,13.73
2016-07-15T02:20:27.862Z,13.56
2016-07-15T02:21:27.931Z,13.63
2016-07-15T02:22:27.881Z,13.69
2016-07-15T02:23:27.861Z,13.67
2016-07-15T02:24:27.879Z,13.71
2016-07-15T02:25:27.874Z,13.7
2016-07-15T02:26:27.880Z,13.67
2016-07-15T02:27:27.968Z,13.69
2016-07-15T02:28:27.900Z,13.63
2016-07-15T02:29:27.901Z,13.73
2016-07-15T02:30:27.871Z,13.69
2016-07-15T02:31:27.895Z,13.79
2016-07-15T02:32:27.881Z,13.7
2016-07-15T02:33:27.855Z,13.74
2016-07-15T02:34:27.914Z,13.67
2016-07-15T02:35:27.877Z,13.73
2016-07-15T02:36:27.890Z,13.81
2016-07-15T02:37:27.915Z,13.81
2016-07-15T02:38:27.883Z,13.7
2016-07-15T02:39:27.881Z,13.71
2016-07-15T02:40:27.867Z,13.69
2016-07-15T02:41:27.900Z,13.67
2016-07-15T02:42:27.939Z,13.73
2016-07-15T02:43:27.921Z,13.71
2016-07-15T02:44:27.890Z,13.63
2016-07-15T02:45:27.892Z,13.69
2016-07-15T02:46:27.923Z,13.69
2016-07-15T02:47:27.912Z,13.76
2016-07-15T02:48:27.891Z,13.67
2016-07-15T02:49:27.895Z,13.76
2016-07-15T02:50:27.891Z,13.77
2016-07-15T02:51:27.909Z,13.7
2016-07-15T02:52:27.898Z,13.67
2016-07-15T02:53:27.940Z,13.71
2016-07-15T02:54:27.908Z,13.77
2016-07-15T02:55:27.888Z,13.84
2016-07-15T02:56:27.903Z,13.77
2016-07-15T02:57:27.900Z,13.8
2016-07-15T02:58:27.931Z,13.8
2016-07-15T02:59:28.133Z,13.89
2016-07-15T03:00:28.139Z,13.84
2016-07-15T03:01:28.123Z,13.88
2016-07-15T03:02:28.133Z,13.84
2016-07-15T03:03:28.161Z,13.8
2016-07-15T03:04:28.172Z,13.91
2016-07-15T03:05:28.176Z,13.87
2016-07-15T03:06:28.206Z,13.84
2016-07-15T03:07:28.177Z,13.91
2016-07-15T03:08:28.167Z,13.99
2016-07-15T03:09:28.156Z,13.91
2016-07-15T03:10:28.173Z,13.89
2016-07-15T03:11:28.162Z,13.89
2016-07-15T03:12:28.167Z,13.92
2016-07-15T03:13:28.131Z,13.92
2016-07-15T03:14:28.147Z,13.94
2016-07-15T03:15:28.126Z,13.87
2016-07-15T03:16:28.151Z,13.89
2016-07-15T03:17:28.164Z,13.98
2016-07-15T03:18:28.154Z,13.87
2016-07-15T03:19:28.139Z,13.96
2016-07-15T03:20:28.210Z,14.02
2016-07-15T03:21:28.193Z,13.95
2016-07-15T03:22:28.152Z,13.94
2016-07-15T03:23:28.146Z,14.06
2016-07-15T03:24:28.178Z,14.02
2016-07-15T03:25:28.162Z,13.96
2016-07-15T03:26:28.176Z,13.99
2016-07-15T03:27:28.148Z,14.09
2016-07-15T03:28:28.194Z,14.02
2016-07-15T03:29:28.161Z,13.96
2016-07-15T03:30:28.162Z,14.06
2016-07-15T03:31:28.194Z,14.07
2016-07-15T03:32:28.168Z,14.01
2016-07-15T03:33:28.174Z,14.01
2016-07-15T03:34:28.165Z,13.88
2016-07-15T03:35:28.276Z,13.96
2016-07-15T03:36:28.162Z,13.91
2016-07-15T03:37:28.144Z,14.06
2016-07-15T03:38:28.137Z,13.96
2016-07-15T03:39:28.157Z,14.13
2016-07-15T03:40:28.126Z,14.01
2016-07-15T03:41:28.169Z,14.02
2016-07-15T03:42:28.494Z,14.1
2016-07-15T03:43:28.500Z,14.1
2016-07-15T03:44:28.494Z,13.99
2016-07-15T03:45:28.486Z,14.02
2016-07-15T03:46:28.481Z,13.98
2016-07-15T03:47:28.483Z,13.98
2016-07-15T03:48:28.478Z,14.01
2016-07-15T03:49:28.500Z,14.1
2016-07-15T03:50:28.503Z,13.98
2016-07-15T03:51:28.482Z,13.98
2016-07-15T03:52:28.505Z,14.12
2016-07-15T03:53:28.496Z,14.06
2016-07-15T03:54:28.485Z,14.13
2016-07-15T03:55:28.507Z,14.14
2016-07-15T03:56:28.524Z,14.01
2016-07-15T03:57:28.511Z,14.01
2016-07-15T03:58:28.522Z,13.99
2016-07-15T03:59:28.495Z,14.1
2016-07-15T04:00:28.499Z,13.99
2016-07-15T04:01:28.495Z,14.01
2016-07-15T04:02:28.515Z,14.06
2016-07-15T04:03:28.539Z,14.02
2016-07-15T04:04:28.586Z,14.04
2016-07-15T04:05:28.585Z,14.07
2016-07-15T04:06:28.540Z,14.06
2016-07-15T04:07:28.586Z,14.12
2016-07-15T04:08:28.558Z,14.02
2016-07-15T04:09:28.509Z,14.04
2016-07-15T04:10:28.525Z,14.12
2016-07-15T04:11:28.555Z,14.13
2016-07-15T04:12:28.521Z,14.06
2016-07-15T04:13:28.569Z,14.16
2016-07-15T04:14:28.571Z,14.14
2016-07-15T04:15:28.549Z,14.09
2016-07-15T04:16:28.532Z,14.17
2016-07-15T04:17:28.559Z,14.12
2016-07-15T04:18:28.531Z,14.21
2016-07-15T04:19:28.566Z,14.17
2016-07-15T04:20:28.527Z,14.21
2016-07-15T04:21:28.532Z,14.39
2016-07-15T04:22:28.592Z,14.24
2016-07-15T04:23:28.594Z,14.21
2016-07-15T04:24:28.528Z,14.27
2016-07-15T04:25:28.551Z,14.24
2016-07-15T04:26:28.534Z,14.21
2016-07-15T04:27:28.525Z,14.32
2016-07-15T04:28:28.511Z,14.24
2016-07-15T04:29:28.557Z,14.29
2016-07-15T04:30:28.528Z,14.21
2016-07-15T04:31:28.521Z,14.25
2016-07-15T04:32:28.527Z,14.2
2016-07-15T04:33:28.523Z,14.34
2016-07-15T04:34:28.527Z,14.19
2016-07-15T04:35:28.545Z,14.32
2016-07-15T04:36:28.554Z,14.19
2016-07-15T04:37:28.519Z,14.27
2016-07-15T04:38:28.523Z,14.34
2016-07-15T04:39:28.532Z,14.32
2016-07-15T04:40:28.585Z,14.42
2016-07-15T04:41:28.547Z,14.35
2016-07-15T04:42:28.528Z,14.42
2016-07-15T04:43:28.582Z,14.39
2016-07-15T04:44:28.528Z,14.43
2016-07-15T04:45:28.529Z,14.37
2016-07-15T04:46:28.556Z,14.47
2016-07-15T04:47:28.545Z,14.42
2016-07-15T04:48:28.531Z,14.44
2016-07-15T04:49:28.556Z,14.53
2016-07-15T04:50:28.600Z,14.5
2016-07-15T04:51:28.562Z,14.52
2016-07-15T04:52:28.547Z,14.52
2016-07-15T04:53:28.600Z,14.52
2016-07-15T04:54:28.560Z,14.47
2016-07-15T04:55:28.562Z,14.53
2016-07-15T04:56:28.590Z,14.44
2016-07-15T04:57:28.555Z,14.57
2016-07-15T04:58:28.559Z,14.52
2016-07-15T04:59:28.573Z,14.61
2016-07-15T05:00:28.559Z,14.57
2016-07-15T05:01:28.570Z,14.67
2016-07-15T05:02:28.557Z,14.65
2016-07-15T05:03:28.582Z,14.68
2016-07-15T05:04:28.557Z,14.67
2016-07-15T05:05:29.311Z,14.74
2016-07-15T05:06:28.556Z,14.74
2016-07-15T05:07:28.573Z,14.65
2016-07-15T05:08:28.594Z,14.81
2016-07-15T05:09:28.574Z,14.84
2016-07-15T05:10:28.663Z,14.84
2016-07-15T05:11:28.664Z,14.81
2016-07-15T05:12:28.569Z,14.84
2016-07-15T05:13:28.651Z,14.81
2016-07-15T05:14:28.583Z,14.84
2016-07-15T05:15:28.635Z,14.78
2016-07-15T05:16:28.600Z,14.86
2016-07-15T05:17:29.277Z,14.98
2016-07-15T05:18:28.605Z,14.93
2016-07-15T05:19:28.579Z,14.9
2016-07-15T05:20:28.627Z,14.94
2016-07-15T05:21:28.591Z,15.05
2016-07-15T05:22:28.623Z,14.9
2016-07-15T05:23:28.560Z,15.01
2016-07-15T05:24:28.593Z,14.98
2016-07-15T05:25:28.560Z,14.99
2016-07-15T05:26:28.986Z,15.11
2016-07-15T05:27:28.611Z,15.13
2016-07-15T05:28:28.558Z,15.15
2016-07-15T05:29:28.567Z,15.28
2016-07-15T05:30:28.591Z,15.17
2016-07-15T05:31:28.578Z,15.17
2016-07-15T05:32:28.591Z,15.27
2016-07-15T05:33:29.461Z,15.27
2016-07-15T05:34:28.892Z,15.35
2016-07-15T05:35:29.105Z,15.31
2016-07-15T05:36:29.034Z,15.36
2016-07-15T05:37:29.504Z,15.31
2016-07-15T05:38:29.316Z,15.36
2016-07-15T05:39:28.856Z,15.41
2016-07-15T05:40:28.587Z,15.48
2016-07-15T05:41:28.591Z,15.52
2016-07-15T05:42:28.593Z,15.49
2016-07-15T05:43:28.675Z,15.63
2016-07-15T05:44:29.012Z,15.75
2016-07-15T05:45:29.111Z,15.72
2016-07-15T05:46:28.867Z,15.78
2016-07-15T05:47:28.713Z,15.85
2016-07-15T05:48:28.591Z,15.96
2016-07-15T05:49:28.692Z,15.96
2016-07-15T05:50:28.629Z,15.97
2016-07-15T05:51:28.590Z,16
2016-07-15T05:52:28.742Z,16.06
2016-07-15T05:53:28.683Z,16.18
2016-07-15T05:54:28.784Z,16.33
2016-07-15T05:55:28.597Z,16.18
2016-07-15T05:56:28.688Z,16.37
2016-07-15T05:57:28.642Z,16.23
2016-07-15T05:58:28.741Z,16.26
2016-07-15T05:59:28.623Z,16.31
2016-07-15T06:00:28.663Z,16.37
2016-07-15T06:01:28.596Z,16.53
2016-07-15T06:02:28.704Z,16.59
2016-07-15T06:03:29.734Z,16.63
2016-07-15T06:04:29.375Z,16.75
2016-07-15T06:05:28.626Z,16.77
2016-07-15T06:06:28.602Z,16.78
2016-07-15T06:07:28.623Z,16.78
2016-07-15T06:08:28.592Z,16.78
2016-07-15T06:09:28.605Z,16.68
2016-07-15T06:10:28.615Z,16.83
2016-07-15T06:11:28.639Z,16.73
2016-07-15T06:12:28.601Z,16.55
2016-07-15T06:13:28.605Z,16.68
2016-07-15T06:14:28.600Z,16.71
2016-07-15T06:15:28.606Z,16.6
2016-07-15T06:16:28.603Z,16.59
2016-07-15T06:17:28.622Z,16.59
2016-07-15T06:18:28.649Z,16.68
2016-07-15T06:19:28.665Z,16.95
2016-07-15T06:20:28.643Z,16.93
2016-07-15T06:21:28.634Z,17.14
2016-07-15T06:22:28.642Z,17.36
2016-07-15T06:23:28.629Z,17.46
2016-07-15T06:24:28.614Z,17.54
2016-07-15T06:25:28.633Z,17.44
2016-07-15T06:26:28.606Z,17.5
2016-07-15T06:27:28.621Z,17.55
2016-07-15T06:28:28.622Z,17.51
2016-07-15T06:29:28.624Z,17.53
2016-07-15T06:30:28.607Z,17.48
2016-07-15T06:31:28.665Z,17.48
2016-07-15T06:32:28.621Z,17.46
2016-07-15T06:33:28.675Z,17.38
2016-07-15T06:34:30.617Z,17.36
2016-07-15T06:35:35.482Z,17.32
2016-07-15T06:36:28.607Z,17.38
2016-07-15T06:37:34.186Z,17.29
2016-07-15T06:38:34.927Z,17.1
2016-07-15T06:39:30.638Z,17.17
2016-07-15T06:40:54.200Z,17.3
2016-07-15T06:41:47.818Z,17.28
2016-07-15T06:43:03.943Z,17.38
2016-07-15T06:44:03.711Z,17.54
2016-07-15T06:45:00.996Z,17.76
2016-07-15T06:45:35.246Z,17.82
2016-07-15T06:47:14.071Z,17.85
2016-07-15T06:48:38.447Z,17.89
2016-07-15T06:50:07.016Z,17.88
2016-07-15T06:51:23.969Z,17.88
2016-07-15T06:52:30.119Z,17.88
2016-07-15T06:53:38.221Z,17.82
2016-07-15T06:54:24.014Z,17.94
2016-07-15T06:55:22.599Z,17.84
2016-07-15T06:56:22.187Z,17.94
2016-07-15T06:57:21.426Z,17.85
2016-07-15T06:58:15.375Z,17.88
2016-07-15T06:59:15.350Z,17.82
2016-07-15T07:00:15.341Z,17.99
2016-07-15T07:01:15.375Z,18.02
2016-07-15T07:02:15.374Z,18.07
2016-07-15T07:03:15.400Z,17.94
2016-07-15T07:04:15.332Z,18.34
2016-07-15T07:05:15.363Z,19.18
2016-07-15T07:06:15.379Z,19.54
2016-07-15T07:07:15.342Z,19.72
2016-07-15T07:08:15.358Z,19.98
2016-07-15T07:09:15.344Z,19.98
2016-07-15T07:10:15.346Z,20.02
2016-07-15T07:11:15.358Z,20.06
2016-07-15T07:12:15.381Z,19.91
2016-07-15T07:13:15.381Z,20.03
2016-07-15T07:14:15.360Z,19.87
2016-07-15T07:15:22.846Z,19.68
2016-07-15T07:16:18.028Z,19.78
2016-07-15T07:17:18.177Z,19.84
2016-07-15T07:18:37.232Z,19.8
2016-07-15T07:19:32.249Z,19.75
2016-07-15T07:20:16.037Z,19.76
2016-07-15T07:21:24.169Z,19.76
2016-07-15T07:22:20.834Z,19.65
2016-07-15T07:23:32.718Z,19.76
2016-07-15T07:24:15.554Z,19.8
2016-07-15T07:25:15.410Z,19.97
2016-07-15T07:26:15.551Z,20.56
2016-07-15T07:27:15.381Z,20.69
2016-07-15T07:28:15.477Z,20.77
2016-07-15T07:29:15.372Z,20.68
2016-07-15T07:30:15.369Z,20.56
2016-07-15T07:31:15.343Z,20.64
2016-07-15T07:32:15.444Z,20.8
2016-07-15T07:33:15.391Z,20.79
2016-07-15T07:34:15.529Z,20.86
2016-07-15T07:35:15.611Z,20.95
2016-07-15T07:36:15.370Z,20.98
2016-07-15T07:37:15.403Z,20.99
2016-07-15T07:38:15.369Z,21.16
2016-07-15T07:39:15.368Z,21.95
2016-07-15T07:40:15.410Z,22.06
2016-07-15T07:41:15.416Z,22.68
2016-07-15T07:42:15.452Z,22.99
2016-07-15T07:43:15.374Z,23.32
2016-07-15T07:44:15.424Z,23.57
2016-07-15T07:45:15.441Z,23.98
2016-07-15T07:46:15.408Z,24.53
2016-07-15T07:47:15.418Z,23.92
2016-07-15T07:48:15.389Z,23.92
2016-07-15T07:49:16.054Z,23.35
2016-07-15T07:50:15.472Z,23.31
2016-07-15T07:51:15.447Z,23.01
2016-07-15T07:52:15.458Z,22.56
2016-07-15T07:53:15.459Z,22.35
2016-07-15T07:54:15.401Z,21.95
2016-07-15T07:55:15.422Z,21.75
2016-07-15T07:56:15.569Z,21.5
2016-07-15T07:57:15.438Z,21.5
2016-07-15T07:58:15.417Z,21.39
2016-07-15T07:59:15.408Z,21.19
2016-07-15T08:00:15.776Z,21.01
2016-07-15T08:01:15.401Z,20.86
2016-07-15T08:02:15.426Z,20.58
2016-07-15T08:03:15.399Z,20.49
2016-07-15T08:04:15.395Z,21.14
2016-07-15T08:05:15.427Z,21.57
2016-07-15T08:06:15.399Z,22.06
2016-07-15T08:07:15.398Z,22.16
2016-07-15T08:08:15.392Z,22.39
2016-07-15T08:09:15.403Z,22.47
2016-07-15T08:10:15.421Z,22.69
2016-07-15T08:11:15.414Z,22.83
2016-07-15T08:12:15.435Z,23.09
2016-07-15T08:13:15.426Z,22.68
2016-07-15T08:14:15.424Z,22.23
2016-07-15T08:15:15.431Z,21.94
2016-07-15T08:16:16.093Z,21.74
2016-07-15T08:17:15.465Z,21.39
2016-07-15T08:18:15.422Z,21.38
2016-07-15T08:19:15.429Z,21.21
2016-07-15T08:20:15.432Z,21.05
2016-07-15T08:21:15.490Z,21.16
2016-07-15T08:22:15.404Z,21.44
2016-07-15T08:23:16.172Z,21.82
2016-07-15T08:24:15.469Z,21.95
2016-07-15T08:25:15.459Z,21.98
2016-07-15T08:26:15.405Z,22.17
2016-07-15T08:27:15.499Z,22.2
2016-07-15T08:28:15.429Z,22.16
2016-07-15T08:29:15.650Z,22.16
2016-07-15T08:30:15.409Z,22.16
2016-07-15T08:31:15.445Z,22.09
2016-07-15T08:32:15.427Z,22.17
2016-07-15T08:33:15.413Z,22.22
2016-07-15T08:34:15.471Z,22.02
2016-07-15T08:35:15.412Z,21.81
2016-07-15T08:36:15.426Z,21.69
2016-07-15T08:37:15.412Z,21.81
2016-07-15T08:38:15.418Z,21.94
2016-07-15T08:39:15.466Z,21.95
2016-07-15T08:40:15.470Z,21.81
2016-07-15T08:41:15.414Z,22.01
2016-07-15T08:42:15.445Z,21.91
2016-07-15T08:43:15.437Z,21.98
2016-07-15T08:44:15.407Z,21.99
2016-07-15T08:45:15.461Z,21.99
2016-07-15T08:46:15.434Z,22.02
2016-07-15T08:47:15.430Z,21.98
2016-07-15T08:48:15.434Z,22.27
2016-07-15T08:49:15.573Z,22.06
2016-07-15T08:50:15.624Z,21.97
2016-07-15T08:51:15.455Z,21.9
2016-07-15T08:52:15.474Z,21.69
2016-07-15T08:53:15.492Z,21.39
2016-07-15T08:54:15.431Z,21.16
2016-07-15T08:55:16.426Z,21.2
2016-07-15T08:56:15.443Z,21.19
2016-07-15T08:57:15.476Z,21.26
2016-07-15T08:58:15.470Z,21.35
2016-07-15T08:59:15.449Z,21.3
2016-07-15T09:00:15.528Z,21.32
2016-07-15T09:01:15.453Z,21.38
2016-07-15T09:02:15.462Z,21.36
2016-07-15T09:03:15.436Z,21.17
2016-07-15T09:04:15.435Z,21.14
2016-07-15T09:05:15.714Z,21.3
2016-07-15T09:06:15.478Z,21.45
2016-07-15T09:07:15.429Z,21.53
2016-07-15T09:08:15.438Z,21.38
2016-07-15T09:09:15.457Z,21.34
2016-07-15T09:10:15.479Z,21.24
2016-07-15T09:11:15.473Z,21.38
2016-07-15T09:12:15.538Z,21.41
2016-07-15T09:13:15.458Z,21.19
2016-07-15T09:14:15.477Z,21.24
2016-07-15T09:15:15.453Z,21.11
2016-07-15T09:16:15.505Z,21.13
2016-07-15T09:17:15.467Z,21.19
2016-07-15T09:18:15.457Z,21.06
2016-07-15T09:19:15.554Z,21.05
2016-07-15T09:20:15.445Z,21.24
2016-07-15T09:21:15.467Z,21.17
2016-07-15T09:22:15.461Z,21.35
2016-07-15T09:23:15.438Z,21.32
2016-07-15T09:24:15.482Z,21.54
2016-07-15T09:25:15.484Z,21.71
2016-07-15T09:26:15.503Z,21.92
2016-07-15T09:27:15.467Z,21.94
2016-07-15T09:28:15.532Z,21.92
2016-07-15T09:29:15.507Z,21.94
2016-07-15T09:30:15.515Z,21.66
2016-07-15T09:31:15.555Z,21.67
2016-07-15T09:32:15.463Z,21.71
2016-07-15T09:33:15.526Z,21.57
2016-07-15T09:34:15.461Z,21.45
2016-07-15T09:35:15.500Z,21.46
2016-07-15T09:36:15.492Z,21.36
2016-07-15T09:37:15.505Z,21.29
2016-07-15T09:38:15.466Z,21.38
2016-07-15T09:39:15.480Z,21.32
2016-07-15T09:40:16.004Z,21.6
2016-07-15T09:41:15.478Z,21.79
2016-07-15T09:42:15.493Z,21.9
2016-07-15T09:43:15.464Z,21.85
2016-07-15T09:44:15.575Z,21.82
2016-07-15T09:45:15.501Z,21.87
2016-07-15T09:46:15.440Z,21.74
2016-07-15T09:47:15.526Z,21.95
2016-07-15T09:48:15.468Z,21.75
2016-07-15T09:49:15.474Z,21.94
2016-07-15T09:50:15.499Z,21.99
2016-07-15T09:51:15.531Z,22.01
2016-07-15T09:52:15.536Z,21.97
2016-07-15T09:53:15.538Z,21.87
2016-07-15T09:54:15.518Z,21.82
2016-07-15T09:55:15.519Z,21.95
2016-07-15T09:56:15.767Z,22.06
2016-07-15T09:57:15.525Z,21.9
2016-07-15T09:58:15.496Z,21.85
2016-07-15T09:59:15.483Z,21.91
2016-07-15T10:00:15.487Z,21.94
2016-07-15T10:01:15.498Z,22.07
2016-07-15T10:02:15.578Z,22.02
2016-07-15T10:03:15.499Z,22.32
2016-07-15T10:04:15.511Z,22.56
2016-07-15T10:05:15.565Z,22.49
2016-07-15T10:06:15.554Z,22.49
2016-07-15T10:07:15.509Z,22.93
2016-07-15T10:08:15.615Z,22.84
2016-07-15T10:09:15.535Z,22.78
2016-07-15T10:10:15.519Z,22.82
2016-07-15T10:11:15.607Z,22.87
2016-07-15T10:12:15.500Z,22.84
2016-07-15T10:13:15.504Z,23.12
2016-07-15T10:14:15.825Z,22.96
2016-07-15T10:15:15.526Z,23.15
2016-07-15T10:16:15.502Z,22.99
2016-07-15T10:17:15.506Z,23.34
2016-07-15T10:18:15.524Z,23.58
2016-07-15T10:19:15.535Z,23.75
2016-07-15T10:20:15.542Z,23.61
2016-07-15T10:21:15.512Z,23.64
2016-07-15T10:22:15.529Z,23.45
2016-07-15T10:23:15.542Z,23.32
2016-07-15T10:24:15.527Z,23.11
2016-07-15T10:25:15.536Z,23.11
2016-07-15T10:26:15.564Z,23.19
2016-07-15T10:27:15.768Z,23.15
2016-07-15T10:28:15.570Z,23.19
2016-07-15T10:29:15.538Z,23.12
2016-07-15T10:30:15.574Z,22.92
2016-07-15T10:31:15.559Z,22.74
2016-07-15T10:32:15.553Z,22.75
2016-07-15T10:33:15.572Z,22.64
2016-07-15T10:34:15.558Z,22.5
2016-07-15T10:35:15.519Z,22.2
2016-07-15T10:36:15.561Z,22.13
2016-07-15T10:37:15.564Z,22.22
2016-07-15T10:38:15.566Z,22.04
2016-07-15T10:39:15.571Z,22.52
2016-07-15T10:40:15.569Z,22.17
2016-07-15T10:41:15.619Z,22.56
2016-07-15T10:42:15.557Z,22.86
2016-07-15T10:43:15.564Z,22.71
2016-07-15T10:44:15.591Z,22.9
2016-07-15T10:45:15.567Z,23.01
2016-07-15T10:46:15.651Z,22.8
2016-07-15T10:47:15.625Z,22.96
2016-07-15T10:48:15.616Z,22.77
2016-07-15T10:49:15.537Z,22.87
2016-07-15T10:50:15.571Z,22.86
2016-07-15T10:51:15.601Z,23.2
2016-07-15T10:52:15.613Z,23.47
2016-07-15T10:53:15.634Z,23.42
2016-07-15T10:54:15.831Z,23.5
2016-07-15T10:55:15.903Z,23.67
2016-07-15T10:56:15.621Z,23.5
2016-07-15T10:57:16.009Z,23.55
2016-07-15T10:58:15.656Z,23.64
2016-07-15T10:59:15.611Z,23.77
2016-07-15T11:00:15.594Z,23.65
2016-07-15T11:01:15.745Z,23.75
2016-07-15T11:02:15.608Z,23.67
2016-07-15T11:03:15.566Z,23.68
2016-07-15T11:04:15.601Z,23.53
2016-07-15T11:05:15.567Z,23.57
2016-07-15T11:06:15.591Z,23.55
2016-07-15T11:07:16.101Z,23.42
2016-07-15T11:08:16.362Z,23.22
2016-07-15T11:09:16.282Z,22.96
2016-07-15T11:10:15.590Z,23.08
2016-07-15T11:11:15.711Z,22.77
2016-07-15T11:12:15.622Z,22.75
2016-07-15T11:13:15.787Z,22.52
2016-07-15T11:14:15.742Z,22.5
2016-07-15T11:15:16.213Z,22.89
2016-07-15T11:16:15.711Z,22.99
2016-07-15T11:17:16.008Z,23.07
2016-07-15T11:18:16.425Z,22.9
2016-07-15T11:19:15.691Z,22.84
2016-07-15T11:20:15.882Z,22.87
2016-07-15T11:21:15.980Z,22.74
2016-07-15T11:22:15.624Z,22.77
2016-07-15T11:23:15.617Z,22.87
2016-07-15T11:24:15.590Z,22.64
2016-07-15T11:25:15.891Z,22.84
2016-07-15T11:26:15.617Z,22.93
2016-07-15T11:27:16.655Z,23.22
2016-07-15T11:28:15.841Z,23.24
2016-07-15T11:29:15.711Z,23.34
2016-07-15T11:30:15.612Z,23.71
2016-07-15T11:31:15.681Z,23.62
2016-07-15T11:32:15.595Z,23.83
2016-07-15T11:33:15.630Z,23.72
2016-07-15T11:34:15.617Z,23.62
2016-07-15T11:35:15.629Z,23.77
2016-07-15T11:36:15.628Z,23.6
2016-07-15T11:37:15.653Z,23.71
2016-07-15T11:38:15.624Z,23.79
2016-07-15T11:39:15.630Z,23.97
2016-07-15T11:40:15.605Z,24.01
2016-07-15T11:41:15.589Z,24.02
2016-07-15T11:42:15.839Z,24.19
2016-07-15T11:43:15.598Z,24.13
2016-07-15T11:44:15.597Z,24.01
2016-07-15T11:45:15.619Z,23.95
2016-07-15T11:46:15.762Z,23.76
2016-07-15T11:47:15.633Z,23.71
2016-07-15T11:48:15.601Z,23.61
2016-07-15T11:49:15.604Z,23.52
2016-07-15T11:50:15.594Z,23.58
2016-07-15T11:51:15.622Z,23.68
2016-07-15T11:52:15.581Z,23.77
2016-07-15T11:53:15.672Z,24.01
2016-07-15T11:54:15.623Z,24.07
2016-07-15T11:55:15.613Z,24.16
2016-07-15T11:56:15.605Z,24.23
2016-07-15T11:57:15.644Z,24.23
2016-07-15T11:58:15.647Z,24.23
2016-07-15T11:59:15.603Z,24.22
2016-07-15T12:00:15.680Z,24.04
2016-07-15T12:01:15.652Z,23.98
2016-07-15T12:02:15.621Z,23.65
2016-07-15T12:03:15.624Z,23.55
2016-07-15T12:04:15.600Z,23.38
2016-07-15T12:05:15.622Z,23.29
2016-07-15T12:06:15.664Z,23.09
2016-07-15T12:07:15.627Z,22.9
2016-07-15T12:08:15.623Z,22.69
2016-07-15T12:09:15.654Z,22.86
2016-07-15T12:10:15.661Z,22.5
2016-07-15T12:11:15.652Z,22.84
2016-07-15T12:12:15.682Z,22.64
2016-07-15T12:13:15.734Z,22.72
2016-07-15T12:14:15.664Z,22.9
2016-07-15T12:15:15.657Z,23.05
2016-07-15T12:16:15.655Z,23.23
2016-07-15T12:17:15.652Z,23.05
2016-07-15T12:18:15.640Z,22.87
2016-07-15T12:19:15.650Z,23.32
2016-07-15T12:20:15.652Z,22.99
2016-07-15T12:21:15.659Z,23.09
2016-07-15T12:22:15.640Z,23.5
2016-07-15T12:23:15.652Z,23.27
2016-07-15T12:24:16.390Z,23.43
2016-07-15T12:25:15.692Z,23.46
2016-07-15T12:26:15.646Z,23.31
2016-07-15T12:27:15.655Z,23.61
2016-07-15T12:28:15.654Z,23.26
2016-07-15T12:29:15.658Z,23.6
2016-07-15T12:30:15.649Z,23.83
2016-07-15T12:31:15.634Z,23.79
2016-07-15T12:32:15.665Z,23.77
2016-07-15T12:33:15.773Z,23.72
2016-07-15T12:34:15.650Z,23.77
2016-07-15T12:35:15.679Z,23.87
2016-07-15T12:36:15.660Z,23.97
2016-07-15T12:37:15.654Z,23.79
2016-07-15T12:38:15.749Z,23.77
2016-07-15T12:39:15.654Z,23.68
2016-07-15T12:40:15.691Z,23.55
2016-07-15T12:41:15.664Z,23.5
2016-07-15T12:42:15.682Z,23.38
2016-07-15T12:43:15.654Z,23.32
2016-07-15T12:44:15.666Z,23.14
2016-07-15T12:45:15.671Z,23.12
2016-07-15T12:46:16.402Z,23.15
2016-07-15T12:47:15.712Z,23.15
2016-07-15T12:48:15.647Z,23.4
2016-07-15T12:49:15.685Z,23.39
2016-07-15T12:50:15.693Z,23.23
2016-07-15T12:51:15.812Z,23.11
2016-07-15T12:52:15.778Z,23.04
2016-07-15T12:53:15.696Z,23.08
2016-07-15T12:54:15.678Z,22.97
2016-07-15T12:55:15.697Z,23.04
2016-07-15T12:56:15.684Z,22.92